createdAt,value
2017-10-22T00:02:33.767Z,14.50
2017-10-22T00:07:35.745Z,14.42
2017-10-22T00:12:37.708Z,14.39
2017-10-22T00:17:39.767Z,14.36
2017-10-22T00:22:41.680Z,14.38
2017-10-22T00:27:43.587Z,14.38
2017-10-22T00:32:45.592Z,14.34
2017-10-22T00:37:47.563Z,14.41
2017-10-22T00:42:49.620Z,14.40
2017-10-22T00:47:51.591Z,14.44
2017-10-22T00:52:53.503Z,14.53
2017-10-22T00:57:55.514Z,14.49
2017-10-22T01:02:57.527Z,14.52
2017-10-22T01:07:59.433Z,14.49
2017-10-22T01:13:01.398Z,14.45
2017-10-22T01:18:03.409Z,14.45
2017-10-22T01:23:05.444Z,14.37
2017-10-22T01:28:07.522Z,14.34
2017-10-22T01:33:09.519Z,14.34
2017-10-22T01:38:11.535Z,14.39
2017-10-22T01:43:13.599Z,14.28
2017-10-22T01:48:15.602Z,14.23
2017-10-22T01:53:17.642Z,14.25
2017-10-22T01:58:19.756Z,14.20
2017-10-22T02:03:21.737Z,14.25
2017-10-22T02:08:24.518Z,14.17
2017-10-22T02:13:26.556Z,14.22
2017-10-22T02:18:28.520Z,14.14
2017-10-22T02:23:30.436Z,14.10
2017-10-22T02:28:32.394Z,14.13
2017-10-22T02:33:34.378Z,14.15
2017-10-22T02:38:37.069Z,14.08
2017-10-22T02:43:39.096Z,14.06
2017-10-22T02:48:41.760Z,14.06
2017-10-22T02:53:43.686Z,14.09
2017-10-22T02:58:45.579Z,14.12
2017-10-22T03:03:47.525Z,14.09
2017-10-22T03:08:49.492Z,14.10
2017-10-22T03:13:51.448Z,14.07
2017-10-22T03:18:58.341Z,14.07
2017-10-22T03:24:06.434Z,14.05
2017-10-22T03:29:09.487Z,13.97
2017-10-22T03:34:11.759Z,13.95
2017-10-22T03:39:13.744Z,13.93
2017-10-22T03:44:15.837Z,13.92
2017-10-22T03:49:17.740Z,13.88
2017-10-22T03:54:19.687Z,13.86
2017-10-22T03:59:21.611Z,13.78
2017-10-22T04:04:23.509Z,13.78
2017-10-22T04:09:25.492Z,13.69
2017-10-22T04:14:28.415Z,13.61
2017-10-22T04:19:31.072Z,13.49
2017-10-22T04:24:33.040Z,13.46
2017-10-22T04:29:38.696Z,13.52
2017-10-22T04:34:40.723Z,13.53
2017-10-22T04:39:42.714Z,13.60
2017-10-22T04:44:44.756Z,13.71
2017-10-22T04:49:46.668Z,13.81
2017-10-22T04:54:48.917Z,13.96
2017-10-22T04:59:50.899Z,14.04
2017-10-22T05:04:53.249Z,14.11
2017-10-22T05:09:55.354Z,14.39
2017-10-22T05:14:57.240Z,14.50
2017-10-22T05:19:59.968Z,14.55
2017-10-22T05:25:01.916Z,14.54
2017-10-22T05:30:03.899Z,14.59
2017-10-22T05:35:05.979Z,14.47
2017-10-22T05:40:07.945Z,14.41
2017-10-22T05:45:09.937Z,14.48
2017-10-22T05:50:12.606Z,14.54
2017-10-22T05:55:14.573Z,14.66
2017-10-22T06:00:16.528Z,14.58
2017-10-22T06:05:24.929Z,14.52
2017-10-22T06:10:27.222Z,14.65
2017-10-22T06:15:30.000Z,14.55
2017-10-22T06:20:31.917Z,14.60
2017-10-22T06:25:33.863Z,14.52
2017-10-22T06:30:36.575Z,14.73
2017-10-22T06:35:39.307Z,14.67
2017-10-22T06:40:42.083Z,14.72
2017-10-22T06:45:44.074Z,14.62
2017-10-22T06:50:46.141Z,14.74
2017-10-22T06:55:48.937Z,14.74
2017-10-22T07:00:51.020Z,14.76
2017-10-22T07:05:53.152Z,14.82
2017-10-22T07:10:55.226Z,14.77
2017-10-22T07:15:57.149Z,14.80
2017-10-22T07:20:59.110Z,15.03
2017-10-22T07:26:01.065Z,14.92
2017-10-22T07:31:03.012Z,14.82
2017-10-22T07:36:04.995Z,14.89
2017-10-22T07:41:08.059Z,14.79
2017-10-22T07:46:10.150Z,14.90
2017-10-22T07:51:12.939Z,14.78
2017-10-22T07:56:14.885Z,14.66
2017-10-22T08:01:16.852Z,14.65
2017-10-22T08:06:18.833Z,14.53
2017-10-22T08:11:20.831Z,14.49
2017-10-22T08:16:22.821Z,14.44
2017-10-22T08:21:24.868Z,14.33
2017-10-22T08:26:26.795Z,14.25
2017-10-22T08:31:28.742Z,14.16
2017-10-22T08:36:30.696Z,14.23
2017-10-22T08:41:33.397Z,14.24
2017-10-22T08:46:35.536Z,14.05
2017-10-22T08:51:38.228Z,13.98
2017-10-22T08:56:40.238Z,13.97
2017-10-22T09:01:42.240Z,14.00
2017-10-22T09:06:44.228Z,14.14
2017-10-22T09:11:46.248Z,14.16
2017-10-22T09:16:48.288Z,14.29
2017-10-22T09:21:50.299Z,14.35
2017-10-22T09:26:52.379Z,14.30
2017-10-22T09:31:54.373Z,14.05
2017-10-22T09:36:56.332Z,14.10
2017-10-22T09:41:58.399Z,14.12
2017-10-22T09:47:01.162Z,14.43
2017-10-22T09:52:03.197Z,14.70
2017-10-22T09:57:05.175Z,14.79
2017-10-22T10:02:07.228Z,14.54
2017-10-22T10:07:09.259Z,14.37
2017-10-22T10:12:11.970Z,14.44
2017-10-22T10:17:14.759Z,14.67
2017-10-22T10:22:16.807Z,14.61
2017-10-22T10:27:19.535Z,14.60
2017-10-22T10:32:21.581Z,14.54
2017-10-22T10:37:23.572Z,14.56
2017-10-22T10:42:25.600Z,14.80
2017-10-22T10:47:27.671Z,14.80
2017-10-22T10:52:29.712Z,14.70
2017-10-22T10:57:31.756Z,14.84
2017-10-22T11:02:34.756Z,14.97
2017-10-22T11:07:37.397Z,15.14
2017-10-22T11:12:40.774Z,15.29
2017-10-22T11:17:43.315Z,15.53
2017-10-22T11:22:45.916Z,15.47
2017-10-22T11:27:47.844Z,15.52
2017-10-22T11:32:50.465Z,15.39
2017-10-22T11:37:52.460Z,15.04
2017-10-22T11:42:54.880Z,14.85
2017-10-22T11:47:56.877Z,14.94
2017-10-22T11:52:58.853Z,15.08
2017-10-22T11:58:00.812Z,14.96
2017-10-22T12:03:02.806Z,14.92
2017-10-22T12:08:04.771Z,14.89
2017-10-22T12:13:06.771Z,14.78
2017-10-22T12:18:08.745Z,14.84
2017-10-22T12:23:10.736Z,14.80
2017-10-22T12:28:12.652Z,14.67
2017-10-22T12:33:15.339Z,14.77
2017-10-22T12:38:17.351Z,14.91
2017-10-22T12:43:19.350Z,14.91
2017-10-22T12:48:21.414Z,15.06
2017-10-22T12:53:23.351Z,14.91
2017-10-22T12:58:25.296Z,15.03
2017-10-22T13:03:27.304Z,14.86
2017-10-22T13:08:30.056Z,15.03
2017-10-22T13:13:34.117Z,15.20
2017-10-22T13:18:36.481Z,15.03
2017-10-22T13:23:38.905Z,15.24
2017-10-22T13:28:51.413Z,15.10
2017-10-22T13:33:54.071Z,15.30
2017-10-22T13:38:56.120Z,15.40
2017-10-22T13:43:58.132Z,15.19
2017-10-22T13:49:00.127Z,15.24
2017-10-22T13:54:02.104Z,15.48
2017-10-22T13:59:04.811Z,15.53
2017-10-22T14:04:06.725Z,15.51
2017-10-22T14:09:08.640Z,15.40
2017-10-22T14:14:11.328Z,15.46
2017-10-22T14:19:13.272Z,15.50
2017-10-22T14:24:15.208Z,15.58
2017-10-22T14:29:17.871Z,15.53
2017-10-22T14:34:20.537Z,15.58
2017-10-22T14:39:22.459Z,15.65
2017-10-22T14:44:24.456Z,15.54
2017-10-22T14:49:26.438Z,15.70
2017-10-22T14:54:29.307Z,15.76
2017-10-22T14:59:31.239Z,15.91
2017-10-22T15:04:34.030Z,15.80
2017-10-22T15:09:36.134Z,15.69
2017-10-22T15:14:38.170Z,15.70
2017-10-22T15:19:40.866Z,15.76
2017-10-22T15:24:42.787Z,15.64
2017-10-22T15:29:45.480Z,15.40
2017-10-22T15:34:47.858Z,15.27
2017-10-22T15:39:49.783Z,15.05
2017-10-22T15:44:51.755Z,15.27
2017-10-22T15:49:53.718Z,15.20
2017-10-22T15:54:55.622Z,14.98
2017-10-22T15:59:57.561Z,15.02
2017-10-22T16:05:01.676Z,15.12
2017-10-22T16:10:04.514Z,15.11
2017-10-22T16:15:07.179Z,15.00
2017-10-22T16:20:09.184Z,14.89
2017-10-22T16:25:11.267Z,14.81
2017-10-22T16:30:13.991Z,14.91
2017-10-22T16:35:16.649Z,14.69
2017-10-22T16:40:18.580Z,14.68
2017-10-22T16:45:20.535Z,14.70
2017-10-22T16:50:22.542Z,14.61
2017-10-22T16:55:24.473Z,14.51
2017-10-22T17:00:26.449Z,14.28
2017-10-22T17:05:28.428Z,14.10
2017-10-22T17:10:30.417Z,13.91
2017-10-22T17:15:32.353Z,13.85
2017-10-22T17:20:34.358Z,13.70
2017-10-22T17:25:37.047Z,13.63
2017-10-22T17:30:38.945Z,13.49
2017-10-22T17:35:40.852Z,13.58
2017-10-22T17:40:42.885Z,13.44
2017-10-22T17:45:45.600Z,13.61
2017-10-22T17:50:48.231Z,13.76
2017-10-22T17:55:50.932Z,13.79
2017-10-22T18:00:53.380Z,13.81
2017-10-22T18:05:55.362Z,13.79
2017-10-22T18:10:59.280Z,13.74
2017-10-22T18:16:01.456Z,13.60
2017-10-22T18:21:03.520Z,13.71
2017-10-22T18:26:05.571Z,13.59
2017-10-22T18:31:07.548Z,13.49
2017-10-22T18:36:10.307Z,13.48
2017-10-22T18:41:12.249Z,13.45
2017-10-22T18:46:14.422Z,13.37
2017-10-22T18:51:16.333Z,13.37
2017-10-22T18:56:18.295Z,13.28
2017-10-22T19:01:20.279Z,13.21
2017-10-22T19:06:22.784Z,13.31
2017-10-22T19:11:25.107Z,13.30
2017-10-22T19:16:27.089Z,13.53
2017-10-22T19:21:29.012Z,13.54
2017-10-22T19:26:30.944Z,13.47
2017-10-22T19:31:32.836Z,13.26
2017-10-22T19:36:34.741Z,13.41
2017-10-22T19:41:36.644Z,13.46
2017-10-22T19:46:38.607Z,13.36
2017-10-22T19:51:41.443Z,13.44
2017-10-22T19:56:44.255Z,13.57
2017-10-22T20:01:46.972Z,13.72
2017-10-22T20:06:49.671Z,13.52
2017-10-22T20:11:51.727Z,13.43
2017-10-22T20:16:53.640Z,13.54
2017-10-22T20:21:55.547Z,13.46
2017-10-22T20:26:57.563Z,13.69
2017-10-22T20:31:59.582Z,13.84
2017-10-22T20:37:01.615Z,13.79
2017-10-22T20:42:03.600Z,13.62
2017-10-22T20:47:05.592Z,13.60
2017-10-22T20:52:07.500Z,13.72
2017-10-22T20:57:09.420Z,13.73
2017-10-22T21:02:11.372Z,13.81
2017-10-22T21:07:13.315Z,13.89
2017-10-22T21:12:15.320Z,13.84
2017-10-22T21:17:17.248Z,13.80
2017-10-22T21:22:19.185Z,13.54
2017-10-22T21:27:21.845Z,13.48
2017-10-22T21:32:23.776Z,13.44
2017-10-22T21:37:25.857Z,13.57
2017-10-22T21:42:27.829Z,13.64
2017-10-22T21:47:29.834Z,13.68
2017-10-22T21:52:31.822Z,13.76
2017-10-22T21:57:34.481Z,13.78
2017-10-22T22:02:36.483Z,13.66
2017-10-22T22:07:38.488Z,13.54
2017-10-22T22:12:40.427Z,13.44
2017-10-22T22:17:42.407Z,13.34
2017-10-22T22:22:44.314Z,13.19
2017-10-22T22:27:46.268Z,13.43
2017-10-22T22:32:48.975Z,13.38
2017-10-22T22:37:52.340Z,13.39
2017-10-22T22:42:55.082Z,13.49
2017-10-22T22:47:57.915Z,13.51
2017-10-22T22:53:00.647Z,13.41
2017-10-22T22:58:03.244Z,13.45
2017-10-22T23:03:05.163Z,13.68
2017-10-22T23:08:07.060Z,13.67
2017-10-22T23:13:08.995Z,13.64
2017-10-22T23:18:10.965Z,13.72
2017-10-22T23:23:12.866Z,13.73
2017-10-22T23:28:15.350Z,13.81
2017-10-22T23:33:17.725Z,13.79
2017-10-22T23:38:20.436Z,13.68
2017-10-22T23:43:23.149Z,13.70
2017-10-22T23:48:25.126Z,13.64
2017-10-22T23:53:27.046Z,13.55
2017-10-22T23:58:28.978Z,13.42
